Time,TemperatureF,DewpointF,PressureIn,WindDirection,WindDirectionDegrees,WindSpeedMPH,WindSpeedGustMPH,Humidity,HourlyPrecipIn,Conditions,Clouds,dailyrainin,SoftwareType,DateUTC
2013-04-16 00:11:00,51.0,48.0,30.38,South,170,10.0,-999.0,89,-99.99,,,-99.99,,2013-04-16 00:11:00,
2013-04-16 00:21:00,51.0,48.0,30.38,South,170,10.0,-999.0,89,-99.99,,,-99.99,,2013-04-16 00:21:00,
2013-04-16 01:11:00,50.0,48.0,30.39,South,170,8.0,-999.0,92,-99.99,,,-99.99,,2013-04-16 01:11:00,
2013-04-16 01:21:00,50.0,48.0,30.39,South,170,8.0,-999.0,92,-99.99,,,-99.99,,2013-04-16 01:21:00,
2013-04-16 01:31:00,50.0,48.0,30.39,South,170,8.0,-999.0,92,-99.99,,,-99.99,,2013-04-16 01:31:00,
2013-04-16 02:11:00,51.0,48.0,30.40,South,170,9.0,-999.0,91,-99.99,,,-99.99,,2013-04-16 02:11:00,
2013-04-16 02:21:00,51.0,48.0,30.40,South,170,9.0,-999.0,91,-99.99,,,-99.99,,2013-04-16 02:21:00,
2013-04-16 03:11:00,50.0,48.0,30.40,South,170,9.0,-999.0,91,-99.99,,,-99.99,,2013-04-16 03:11:00,
2013-04-16 03:21:00,50.0,48.0,30.40,South,170,9.0,-999.0,91,-99.99,,,-99.99,,2013-04-16 03:21:00,
2013-04-16 04:32:00,51.0,49.0,30.40,South,180,8.0,-999.0,92,-99.99,,,-99.99,,2013-04-16 04:32:00,
2013-04-16 04:42:00,51.0,49.0,30.40,South,180,8.0,-999.0,92,-99.99,,,-99.99,,2013-04-16 04:42:00,
2013-04-16 04:52:00,51.0,49.0,30.40,South,180,8.0,-999.0,92,-99.99,,,-99.99,,2013-04-16 04:52:00,
2013-04-16 05:11:00,52.0,49.0,30.40,SSW,210,6.0,-999.0,91,-99.99,,,-99.99,,2013-04-16 05:11:00,
2013-04-16 05:22:00,52.0,49.0,30.40,SSW,210,6.0,-999.0,91,-99.99,,,-99.99,,2013-04-16 05:22:00,
2013-04-16 06:11:00,51.0,47.0,30.39,SW,230,3.0,-999.0,88,-99.99,,,-99.99,,2013-04-16 06:11:00,
2013-04-16 06:21:00,51.0,47.0,30.39,SW,230,3.0,-999.0,88,-99.99,,,-99.99,,2013-04-16 06:21:00,
2013-04-16 07:11:00,49.0,46.0,30.40,WSW,240,2.0,-999.0,89,-99.99,,,-99.99,,2013-04-16 07:11:00,
2013-04-16 07:21:00,49.0,46.0,30.40,WSW,240,2.0,-999.0,89,-99.99,,,-99.99,,2013-04-16 07:21:00,
2013-04-16 07:31:00,49.0,46.0,30.40,WSW,240,2.0,-999.0,89,-99.99,,,-99.99,,2013-04-16 07:31:00,
2013-04-16 08:11:00,48.0,45.0,30.40,WSW,250,3.0,-999.0,90,-99.99,,,-99.99,,2013-04-16 08:11:00,
2013-04-16 08:21:00,48.0,45.0,30.40,WSW,250,3.0,-999.0,90,-99.99,,,-99.99,,2013-04-16 08:21:00,
2013-04-16 09:11:00,51.0,48.0,30.40,South,190,2.0,-999.0,91,-99.99,,,-99.99,,2013-04-16 09:11:00,
2013-04-16 09:21:00,51.0,48.0,30.40,South,190,2.0,-999.0,91,-99.99,,,-99.99,,2013-04-16 09:21:00,
2013-04-16 10:12:00,50.0,47.0,30.39,South,180,3.0,-999.0,91,-99.99,,,-99.99,,2013-04-16 10:12:00,
2013-04-16 10:22:00,50.0,47.0,30.39,South,180,3.0,-999.0,91,-99.99,,,-99.99,,2013-04-16 10:22:00,
2013-04-16 10:32:00,50.0,47.0,30.39,South,180,3.0,-999.0,91,-99.99,,,-99.99,,2013-04-16 10:32:00,
2013-04-16 11:12:00,51.0,47.0,30.40,South,180,6.0,-999.0,87,-99.99,,,-99.99,,2013-04-16 11:12:00,
2013-04-16 11:21:00,51.0,47.0,30.40,South,180,6.0,-999.0,87,-99.99,,,-99.99,,2013-04-16 11:21:00,
2013-04-16 13:22:00,52.0,47.0,30.40,South,190,13.0,-999.0,81,-99.99,,,-99.99,,2013-04-16 13:22:00,
2013-04-16 14:11:00,53.0,49.0,30.40,South,190,13.0,-999.0,85,-99.99,,,-99.99,,2013-04-16 14:11:00,
2013-04-16 14:22:00,53.0,49.0,30.40,South,190,13.0,-999.0,85,-99.99,,,-99.99,,2013-04-16 14:22:00,
2013-04-16 16:12:00,53.0,50.0,30.36,South,170,20.0,-999.0,88,-99.99,,,-99.99,,2013-04-16 16:12:00,
2013-04-16 16:22:00,53.0,50.0,30.36,South,170,20.0,-999.0,88,-99.99,,,-99.99,,2013-04-16 16:22:00,
2013-04-16 16:32:00,53.0,50.0,30.36,South,170,20.0,-999.0,88,-99.99,,,-99.99,,2013-04-16 16:32:00,
2013-04-16 17:11:00,54.0,50.0,30.33,South,170,23.0,-999.0,88,-99.99,,,-99.99,,2013-04-16 17:11:00,
2013-04-16 17:22:00,54.0,50.0,30.33,South,170,23.0,-999.0,88,-99.99,,,-99.99,,2013-04-16 17:22:00,
2013-04-16 17:32:00,54.0,50.0,30.33,South,170,23.0,-999.0,88,-99.99,,,-99.99,,2013-04-16 17:32:00,
2013-04-16 18:11:00,53.0,50.0,30.30,South,170,23.0,-999.0,88,-99.99,,,-99.99,,2013-04-16 18:11:00,
2013-04-16 18:21:00,53.0,50.0,30.30,South,170,23.0,-999.0,88,-99.99,,,-99.99,,2013-04-16 18:21:00,
2013-04-16 19:11:00,54.0,51.0,30.29,South,170,21.0,-999.0,89,-99.99,,,-99.99,,2013-04-16 19:11:00,
2013-04-16 19:21:00,54.0,51.0,30.29,South,170,21.0,-999.0,89,-99.99,,,-99.99,,2013-04-16 19:21:00,
2013-04-16 19:31:00,54.0,51.0,30.29,South,170,21.0,-999.0,89,-99.99,,,-99.99,,2013-04-16 19:31:00,
2013-04-16 20:11:00,56.0,51.0,30.28,South,180,17.0,-999.0,84,-99.99,,,-99.99,,2013-04-16 20:11:00,
2013-04-16 20:21:00,56.0,51.0,30.28,South,180,17.0,-999.0,84,-99.99,,,-99.99,,2013-04-16 20:21:00,
2013-04-16 21:00:00,56.0,52.0,30.24,South,180,18.0,-999.0,86,-99.99,,,-99.99,,2013-04-16 21:00:00,
2013-04-16 21:11:00,56.0,52.0,30.24,South,180,18.0,-999.0,86,-99.99,,,-99.99,,2013-04-16 21:11:00,
2013-04-16 21:32:00,56.0,52.0,30.24,South,180,18.0,-999.0,86,-99.99,,,-99.99,,2013-04-16 21:32:00,
2013-04-16 22:12:00,58.0,54.0,30.22,SSW,200,15.0,-999.0,84,-99.99,,,-99.99,,2013-04-16 22:12:00,
2013-04-16 22:22:00,58.0,54.0,30.22,SSW,200,15.0,-999.0,84,-99.99,,,-99.99,,2013-04-16 22:22:00,
2013-04-16 22:32:00,58.0,54.0,30.22,SSW,200,15.0,-999.0,84,-99.99,,,-99.99,,2013-04-16 22:32:00,